createdAt,value
2018-03-08T00:00:50.463Z,9.50
2018-03-08T00:03:18.686Z,10.97
2018-03-08T00:05:46.976Z,10.17
2018-03-08T00:08:15.249Z,10.60
2018-03-08T00:10:43.509Z,12.77
2018-03-08T00:13:11.845Z,10.60
2018-03-08T00:15:40.022Z,13.30
2018-03-08T00:18:08.307Z,21.03
2018-03-08T00:20:36.568Z,10.50
2018-03-08T00:23:04.971Z,16.00
2018-03-08T00:25:33.215Z,13.57
2018-03-08T00:28:01.466Z,13.83
2018-03-08T00:30:29.706Z,10.67
2018-03-08T00:32:58.709Z,12.40
2018-03-08T00:35:26.987Z,18.10
2018-03-08T00:37:55.192Z,18.33
2018-03-08T00:40:23.449Z,20.60
2018-03-08T00:42:51.699Z,24.63
2018-03-08T00:45:19.967Z,31.30
2018-03-08T00:47:49.781Z,25.53
2018-03-08T00:50:18.047Z,28.37
2018-03-08T00:52:46.295Z,32.03
2018-03-08T00:55:14.539Z,34.93
2018-03-08T00:57:43.548Z,42.30
2018-03-08T01:00:11.815Z,37.23
2018-03-08T01:02:40.071Z,45.50
2018-03-08T01:05:09.078Z,45.03
2018-03-08T01:07:37.428Z,57.93
2018-03-08T01:10:05.691Z,48.53
2018-03-08T01:12:33.955Z,50.80
2018-03-08T01:15:02.195Z,49.23
2018-03-08T01:17:30.477Z,44.80
2018-03-08T01:19:58.753Z,48.10
2018-03-08T01:22:27.785Z,43.20
2018-03-08T01:24:56.767Z,52.77
2018-03-08T01:27:25.053Z,45.33
2018-03-08T01:29:53.306Z,50.43
2018-03-08T01:32:21.574Z,44.43
2018-03-08T01:34:50.603Z,40.23
2018-03-08T01:37:18.873Z,39.63
2018-03-08T01:39:47.123Z,47.60
2018-03-08T01:42:15.369Z,42.80
2018-03-08T01:44:44.410Z,44.27
2018-03-08T01:47:12.654Z,51.63
2018-03-08T01:49:41.757Z,50.37
2018-03-08T01:52:12.815Z,38.67
2018-03-08T01:54:41.083Z,38.90
2018-03-08T01:57:10.086Z,41.93
2018-03-08T01:59:38.338Z,47.23
2018-03-08T02:02:06.601Z,39.87
2018-03-08T02:04:34.905Z,44.57
2018-03-08T02:07:03.952Z,48.20
2018-03-08T02:09:32.223Z,42.00
2018-03-08T02:12:00.507Z,46.93
2018-03-08T02:14:29.749Z,45.87
2018-03-08T02:16:58.624Z,42.60
2018-03-08T02:19:28.342Z,60.63
2018-03-08T02:21:56.588Z,51.27
2018-03-08T02:24:24.886Z,57.83
2018-03-08T02:26:53.183Z,54.67
2018-03-08T02:29:21.473Z,54.00
2018-03-08T02:31:50.491Z,57.60
2018-03-08T02:34:18.787Z,58.67
2018-03-08T02:36:47.048Z,63.30
2018-03-08T02:39:15.342Z,56.27
2018-03-08T02:41:44.401Z,69.77
2018-03-08T02:44:12.648Z,58.30
2018-03-08T02:46:41.687Z,56.00
2018-03-08T02:49:09.985Z,67.70
2018-03-08T02:51:38.199Z,59.83
2018-03-08T02:54:06.462Z,62.03
2018-03-08T02:56:34.710Z,68.13
2018-03-08T02:59:03.017Z,62.83
2018-03-08T03:01:31.269Z,59.40
2018-03-08T03:03:59.513Z,67.40
2018-03-08T03:06:28.404Z,63.13
2018-03-08T03:08:56.675Z,68.37
2018-03-08T03:11:25.697Z,60.73
2018-03-08T03:13:53.985Z,66.03
2018-03-08T03:16:22.208Z,59.23
2018-03-08T03:18:51.265Z,81.33
2018-03-08T03:21:19.551Z,61.77
2018-03-08T03:23:47.819Z,67.60
2018-03-08T03:26:16.095Z,73.17
2018-03-08T03:28:44.379Z,59.53
2018-03-08T03:31:12.637Z,67.73
2018-03-08T03:33:40.887Z,61.10
2018-03-08T03:36:09.921Z,57.77
2018-03-08T03:38:38.183Z,54.77
2018-03-08T03:41:07.273Z,63.40
2018-03-08T03:43:35.600Z,55.50
2018-03-08T03:46:04.363Z,52.13
2018-03-08T03:48:32.656Z,57.07
2018-03-08T03:51:00.897Z,46.17
2018-03-08T03:53:29.165Z,43.43
2018-03-08T03:55:57.416Z,51.90
2018-03-08T03:58:26.614Z,45.37
2018-03-08T04:00:54.861Z,44.63
2018-03-08T04:03:23.109Z,42.90
2018-03-08T04:05:51.371Z,49.43
2018-03-08T04:08:19.616Z,40.17
2018-03-08T04:10:47.954Z,46.27
2018-03-08T04:13:16.187Z,39.63
2018-03-08T04:15:44.448Z,42.83
2018-03-08T04:18:12.743Z,54.77
2018-03-08T04:20:41.754Z,47.53
2018-03-08T04:23:10.019Z,39.57
2018-03-08T04:25:40.074Z,52.43
2018-03-08T04:28:08.315Z,49.90
2018-03-08T04:30:37.407Z,44.67
2018-03-08T04:33:06.432Z,65.60
2018-03-08T04:35:34.669Z,42.53
2018-03-08T04:38:03.741Z,46.90
2018-03-08T04:40:32.916Z,49.33
2018-03-08T04:43:01.185Z,52.63
2018-03-08T04:45:29.717Z,49.47
2018-03-08T04:47:57.935Z,58.73
2018-03-08T04:50:26.205Z,63.70
2018-03-08T04:52:54.449Z,39.57
2018-03-08T04:55:24.236Z,56.60
2018-03-08T04:57:52.473Z,34.70
2018-03-08T05:00:21.541Z,43.47
2018-03-08T05:02:50.645Z,44.97
2018-03-08T05:05:20.495Z,47.57
2018-03-08T05:07:48.750Z,52.13
2018-03-08T05:10:17.758Z,43.00
2018-03-08T05:12:46.034Z,46.27
2018-03-08T05:15:14.292Z,46.03
2018-03-08T05:17:43.343Z,57.10
2018-03-08T05:20:12.382Z,41.43
2018-03-08T05:22:41.406Z,43.23
2018-03-08T05:25:09.679Z,45.40
2018-03-08T05:27:37.920Z,45.23
2018-03-08T05:30:08.651Z,35.10
2018-03-08T05:32:36.874Z,45.00
2018-03-08T05:35:05.141Z,38.53
2018-03-08T05:37:34.165Z,44.27
2018-03-08T05:40:02.814Z,39.80
2018-03-08T05:42:31.901Z,38.43
2018-03-08T05:45:01.069Z,33.53
2018-03-08T05:47:29.396Z,33.73
2018-03-08T05:49:57.694Z,41.80
2018-03-08T05:52:25.971Z,44.77
2018-03-08T05:54:54.222Z,43.17
2018-03-08T05:57:23.265Z,37.30
2018-03-08T05:59:51.576Z,28.90
2018-03-08T06:02:20.613Z,52.70
2018-03-08T06:04:48.915Z,37.47
2018-03-08T06:07:17.195Z,32.70
2018-03-08T06:09:45.428Z,38.13
2018-03-08T06:12:13.691Z,48.67
2018-03-08T06:14:42.695Z,30.77
2018-03-08T06:17:10.941Z,44.90
2018-03-08T06:19:39.216Z,31.83
2018-03-08T06:22:08.223Z,32.87
2018-03-08T06:24:37.262Z,29.77
2018-03-08T06:27:05.489Z,39.07
2018-03-08T06:29:34.500Z,33.37
2018-03-08T06:32:03.544Z,29.20
2018-03-08T06:34:31.750Z,31.10
2018-03-08T06:37:00.090Z,27.57
2018-03-08T06:39:28.338Z,30.73
2018-03-08T06:41:57.357Z,28.80
2018-03-08T06:44:25.599Z,30.00
2018-03-08T06:46:53.905Z,29.93
2018-03-08T06:49:23.566Z,25.10
2018-03-08T06:51:52.967Z,29.10
2018-03-08T06:54:21.217Z,34.80
2018-03-08T06:56:49.439Z,34.07
2018-03-08T06:59:17.729Z,32.07
2018-03-08T07:01:46.723Z,22.70
2018-03-08T07:04:15.099Z,18.50
2018-03-08T07:06:43.282Z,21.60
2018-03-08T07:09:11.550Z,23.20
2018-03-08T07:11:40.542Z,21.53
2018-03-08T07:14:09.557Z,13.47
2018-03-08T07:16:38.656Z,15.17
2018-03-08T07:19:07.019Z,17.23
2018-03-08T07:21:35.438Z,20.13
2018-03-08T07:24:03.686Z,24.97
2018-03-08T07:26:31.900Z,24.67
2018-03-08T07:29:00.134Z,27.83
2018-03-08T07:31:28.415Z,42.40
2018-03-08T07:33:57.845Z,19.77
2018-03-08T07:36:26.186Z,14.07
2018-03-08T07:38:55.951Z,20.20
2018-03-08T07:41:24.191Z,20.07
2018-03-08T07:43:52.468Z,14.17
2018-03-08T07:46:21.483Z,13.77
2018-03-08T07:48:49.750Z,13.73
2018-03-08T07:51:17.981Z,12.30
2018-03-08T07:53:46.246Z,9.70
2018-03-08T07:56:14.506Z,16.13
2018-03-08T07:58:42.767Z,13.43
2018-03-08T08:01:11.054Z,15.37
2018-03-08T08:03:39.311Z,18.87
2018-03-08T08:06:19.426Z,17.30
2018-03-08T08:09:00.402Z,17.53
2018-03-08T08:11:29.417Z,16.63
2018-03-08T08:13:58.414Z,10.10
2018-03-08T08:16:26.677Z,12.80
2018-03-08T08:18:55.696Z,24.73
2018-03-08T08:21:24.719Z,17.23
2018-03-08T08:23:52.973Z,11.73
2018-03-08T08:26:21.274Z,14.63
2018-03-08T08:28:49.507Z,34.77
2018-03-08T08:31:17.867Z,17.90
2018-03-08T08:33:46.115Z,14.17
2018-03-08T08:36:14.373Z,16.03
2018-03-08T08:38:42.603Z,24.33
2018-03-08T08:41:10.841Z,15.17
2018-03-08T08:43:39.102Z,24.27
2018-03-08T08:46:07.376Z,20.93
2018-03-08T08:48:35.602Z,17.20
2018-03-08T08:51:04.632Z,9.20
2018-03-08T08:53:33.627Z,13.27
2018-03-08T08:56:01.885Z,14.40
2018-03-08T08:58:30.163Z,13.50
2018-03-08T09:00:58.404Z,10.73
2018-03-08T09:03:26.624Z,12.57
2018-03-08T09:05:55.624Z,9.87
2018-03-08T09:08:24.135Z,10.80
2018-03-08T09:10:52.396Z,16.20
2018-03-08T09:13:20.638Z,10.77
2018-03-08T09:15:49.702Z,16.07
2018-03-08T09:18:17.907Z,18.30
2018-03-08T09:20:46.948Z,21.40
2018-03-08T09:23:15.209Z,22.43
2018-03-08T09:25:44.254Z,17.83
2018-03-08T09:28:12.471Z,15.10
2018-03-08T09:30:41.495Z,24.77
2018-03-08T09:33:09.801Z,21.03
2018-03-08T09:35:38.036Z,13.93
2018-03-08T09:38:06.338Z,16.40
2018-03-08T09:40:34.576Z,16.90
2018-03-08T09:43:03.606Z,15.30
2018-03-08T09:45:31.884Z,25.73
2018-03-08T09:48:00.193Z,38.47
2018-03-08T09:50:28.475Z,23.03
2018-03-08T09:52:58.213Z,119.53
2018-03-08T09:55:26.495Z,17.93
2018-03-08T09:57:55.532Z,14.77
2018-03-08T10:00:23.850Z,87.50
2018-03-08T10:02:52.095Z,18.40
2018-03-08T10:05:20.349Z,26.60
2018-03-08T10:07:48.607Z,18.00
2018-03-08T10:10:17.673Z,24.13
2018-03-08T10:12:46.719Z,21.43
2018-03-08T10:15:14.963Z,15.70
2018-03-08T10:17:43.174Z,29.00
2018-03-08T10:20:11.462Z,19.00
2018-03-08T10:22:39.754Z,16.10
2018-03-08T10:25:08.010Z,15.30
2018-03-08T10:27:36.878Z,21.33
2018-03-08T10:30:05.903Z,12.50
2018-03-08T10:32:34.135Z,32.37
2018-03-08T10:35:03.181Z,18.23
2018-03-08T10:37:31.882Z,14.33
2018-03-08T10:40:00.122Z,13.77
2018-03-08T10:44:56.724Z,32.37
2018-03-08T10:47:25.112Z,14.30
2018-03-08T10:49:53.334Z,11.33
2018-03-08T10:52:21.597Z,12.30
2018-03-08T10:54:49.910Z,11.73
2018-03-08T10:57:18.131Z,11.27
2018-03-08T10:59:46.396Z,30.03
2018-03-08T11:02:17.165Z,17.03
2018-03-08T11:05:01.858Z,16.60
2018-03-08T11:07:30.092Z,15.43
2018-03-08T11:09:59.120Z,37.53
2018-03-08T11:12:27.692Z,24.87
2018-03-08T11:14:56.698Z,21.13
2018-03-08T11:17:24.963Z,13.10
2018-03-08T11:19:53.996Z,5.90
2018-03-08T11:22:22.230Z,17.83
2018-03-08T11:24:50.464Z,12.87
2018-03-08T11:27:19.060Z,13.53
2018-03-08T11:29:47.258Z,6.80
2018-03-08T11:32:16.274Z,13.70
2018-03-08T11:34:44.512Z,20.90
2018-03-08T11:37:12.787Z,9.30
2018-03-08T11:39:41.371Z,12.87
2018-03-08T11:42:09.656Z,8.27
2018-03-08T11:44:37.872Z,21.13
2018-03-08T11:47:06.118Z,15.50
2018-03-08T11:49:35.715Z,12.23
2018-03-08T11:52:04.728Z,15.00
2018-03-08T11:54:33.213Z,24.90
2018-03-08T11:57:01.481Z,19.37
2018-03-08T11:59:30.497Z,8.87
2018-03-08T12:01:58.745Z,5.93
2018-03-08T12:04:27.793Z,12.43
2018-03-08T12:06:56.206Z,9.97
2018-03-08T12:09:25.226Z,16.90
2018-03-08T12:11:54.266Z,6.57
2018-03-08T12:14:22.482Z,9.10
2018-03-08T12:16:51.517Z,15.17
2018-03-08T12:19:20.496Z,6.80
2018-03-08T12:21:49.527Z,7.70
2018-03-08T12:24:17.762Z,14.43
2018-03-08T12:26:46.122Z,20.83
2018-03-08T12:29:14.366Z,6.30
2018-03-08T12:31:42.603Z,11.63
2018-03-08T12:34:10.855Z,7.60
2018-03-08T12:36:39.151Z,10.90
2018-03-08T12:39:08.194Z,18.33
2018-03-08T12:41:36.460Z,13.03
2018-03-08T12:44:04.734Z,11.90
2018-03-08T12:46:33.910Z,7.50
2018-03-08T12:49:02.206Z,12.27
2018-03-08T12:51:30.470Z,16.73
2018-03-08T12:53:59.029Z,10.47
2018-03-08T12:56:28.062Z,12.27
2018-03-08T12:58:56.303Z,5.60
2018-03-08T13:01:25.338Z,5.23
2018-03-08T13:03:53.586Z,7.13
2018-03-08T13:06:21.852Z,9.33
2018-03-08T13:08:50.918Z,15.13
2018-03-08T13:11:19.242Z,22.60
2018-03-08T13:13:47.511Z,6.50
2018-03-08T13:16:16.561Z,11.23
2018-03-08T13:18:44.815Z,7.43
2018-03-08T13:21:13.072Z,10.00
2018-03-08T13:23:41.344Z,19.00
2018-03-08T13:26:09.579Z,17.70
2018-03-08T13:28:37.826Z,7.20
2018-03-08T13:31:06.082Z,33.23
2018-03-08T13:33:34.333Z,8.87
2018-03-08T13:36:03.278Z,5.87
2018-03-08T13:38:32.070Z,12.60
2018-03-08T13:41:00.384Z,13.13
2018-03-08T13:43:28.698Z,3.13
2018-03-08T13:45:56.971Z,10.23
2018-03-08T13:48:26.236Z,9.70
2018-03-08T13:50:54.596Z,3.87
2018-03-08T13:53:22.879Z,9.20
2018-03-08T13:55:51.130Z,6.23
2018-03-08T13:58:19.367Z,4.50
2018-03-08T14:00:50.114Z,4.77
2018-03-08T14:03:19.102Z,5.03
2018-03-08T14:05:48.203Z,9.53
2018-03-08T14:08:17.607Z,2.60
2018-03-08T14:10:46.633Z,3.13
2018-03-08T14:13:15.027Z,7.23
2018-03-08T14:15:43.292Z,6.63
2018-03-08T14:18:11.531Z,1.60
2018-03-08T14:20:40.546Z,6.40
2018-03-08T14:23:08.850Z,6.17
2018-03-08T14:25:37.159Z,11.00
2018-03-08T14:28:05.421Z,4.73
2018-03-08T14:30:34.491Z,6.20
2018-03-08T14:33:02.819Z,4.40
2018-03-08T14:35:32.355Z,19.30
2018-03-08T14:38:01.422Z,4.50
2018-03-08T14:40:30.484Z,8.23
2018-03-08T14:42:58.742Z,5.97
2018-03-08T14:45:27.029Z,14.60
2018-03-08T14:47:55.337Z,8.80
2018-03-08T14:50:25.435Z,11.70
2018-03-08T14:52:53.678Z,16.40
2018-03-08T14:55:22.717Z,9.30
2018-03-08T14:57:50.986Z,5.30
2018-03-08T15:00:19.263Z,5.10
2018-03-08T15:02:47.491Z,5.90
2018-03-08T15:05:16.566Z,10.20
2018-03-08T15:07:44.800Z,6.33
2018-03-08T15:10:13.101Z,9.30
2018-03-08T15:12:41.414Z,16.27
2018-03-08T15:15:09.847Z,15.13
2018-03-08T15:17:38.165Z,5.60
2018-03-08T15:20:06.425Z,12.33
2018-03-08T15:22:34.701Z,9.23
2018-03-08T15:25:02.966Z,8.43
2018-03-08T15:27:31.196Z,22.60
2018-03-08T15:29:59.502Z,7.47
2018-03-08T15:32:28.411Z,13.13
2018-03-08T15:34:56.777Z,7.90
2018-03-08T15:37:25.859Z,8.30
2018-03-08T15:39:54.912Z,11.37
2018-03-08T15:42:23.184Z,5.93
2018-03-08T15:44:52.767Z,16.20
2018-03-08T15:47:21.017Z,13.23
2018-03-08T15:49:49.305Z,12.07
2018-03-08T15:52:17.549Z,9.73
2018-03-08T15:54:46.555Z,5.20
2018-03-08T15:57:15.633Z,10.50
2018-03-08T15:59:44.638Z,7.57
2018-03-08T16:02:13.677Z,23.10
2018-03-08T16:04:41.943Z,12.57
2018-03-08T16:07:30.879Z,8.13
2018-03-08T16:13:03.912Z,7.97
2018-03-08T16:15:32.171Z,7.00
2018-03-08T16:18:01.222Z,4.53
2018-03-08T16:20:30.029Z,6.30
2018-03-08T16:22:58.295Z,11.73
2018-03-08T16:25:26.683Z,5.77
2018-03-08T16:27:55.135Z,6.70
2018-03-08T16:30:23.549Z,11.80
2018-03-08T16:32:51.786Z,8.47
2018-03-08T16:35:20.099Z,7.07
2018-03-08T16:37:48.479Z,11.23
2018-03-08T16:40:16.748Z,6.00
2018-03-08T16:42:45.131Z,14.93
2018-03-08T16:45:13.383Z,6.27
2018-03-08T16:47:41.757Z,2.97
2018-03-08T16:50:10.039Z,4.43
2018-03-08T16:52:38.290Z,6.67
2018-03-08T16:55:06.544Z,2.40
2018-03-08T16:57:35.647Z,2.03
2018-03-08T17:00:03.955Z,8.63
2018-03-08T17:02:32.225Z,1.50
2018-03-08T17:05:00.985Z,3.67
2018-03-08T17:07:29.194Z,1.03
2018-03-08T17:09:57.894Z,1.30
2018-03-08T17:12:26.187Z,10.37
2018-03-08T17:14:54.438Z,3.23
2018-03-08T17:17:24.932Z,3.87
2018-03-08T17:19:53.321Z,1.37
2018-03-08T17:22:22.386Z,7.70
2018-03-08T17:24:50.992Z,1.53
2018-03-08T17:27:20.028Z,4.73
2018-03-08T17:29:48.352Z,4.10
2018-03-08T17:32:17.864Z,7.50
2018-03-08T17:34:46.147Z,3.30
2018-03-08T17:37:14.743Z,1.70
2018-03-08T17:39:43.029Z,1.70
2018-03-08T17:42:12.032Z,4.90
2018-03-08T17:44:40.421Z,4.30
2018-03-08T17:47:08.696Z,2.00
2018-03-08T17:49:36.943Z,4.17
2018-03-08T17:52:05.978Z,2.40
2018-03-08T17:54:34.291Z,20.60
2018-03-08T17:57:02.520Z,1.40
2018-03-08T17:59:30.807Z,4.73
2018-03-08T18:01:59.085Z,1.67
2018-03-08T18:04:27.312Z,5.87
2018-03-08T18:06:55.682Z,7.37
2018-03-08T18:09:23.939Z,1.73
2018-03-08T18:11:52.223Z,5.30
2018-03-08T18:14:20.496Z,1.90
2018-03-08T18:16:48.753Z,1.93
2018-03-08T18:19:18.600Z,4.90
2018-03-08T18:21:46.893Z,3.50
2018-03-08T18:24:15.950Z,2.40
2018-03-08T18:26:44.245Z,4.60
2018-03-08T18:29:12.693Z,3.67
2018-03-08T18:31:41.013Z,7.60
2018-03-08T18:34:09.391Z,3.20
2018-03-08T18:36:39.408Z,3.00
2018-03-08T18:39:07.735Z,8.20
2018-03-08T18:41:37.206Z,13.90
2018-03-08T18:44:05.517Z,6.60
2018-03-08T18:46:35.028Z,5.63
2018-03-08T18:49:04.127Z,12.53
2018-03-08T18:51:33.598Z,13.47
2018-03-08T18:54:04.184Z,6.00
2018-03-08T18:56:34.057Z,13.20
2018-03-08T18:59:03.167Z,13.20
2018-03-08T19:01:31.572Z,7.13
2018-03-08T19:04:00.735Z,7.47
2018-03-08T19:06:29.813Z,12.10
2018-03-08T19:08:58.177Z,10.07
2018-03-08T19:11:27.284Z,16.30
2018-03-08T19:13:55.598Z,11.30
2018-03-08T19:16:23.962Z,10.07
2018-03-08T19:18:52.984Z,13.87
2018-03-08T19:21:21.297Z,14.63
2018-03-08T19:23:49.613Z,14.40
2018-03-08T19:26:18.791Z,15.50
2018-03-08T19:28:47.071Z,17.30
2018-03-08T19:31:16.883Z,15.60
2018-03-08T19:33:45.245Z,21.87
2018-03-08T19:36:13.529Z,16.80
2018-03-08T19:38:42.686Z,16.60
2018-03-08T19:41:10.988Z,27.90
2018-03-08T19:43:39.311Z,24.10
2018-03-08T19:46:08.902Z,16.43
2018-03-08T19:48:38.512Z,26.50
2018-03-08T19:51:07.773Z,24.53
2018-03-08T19:53:36.113Z,27.50
2018-03-08T19:56:05.159Z,19.00
2018-03-08T19:58:33.482Z,23.23
2018-03-08T20:01:02.533Z,25.30
2018-03-08T20:03:30.777Z,21.07
2018-03-08T20:05:59.045Z,9.83
2018-03-08T20:08:28.064Z,18.27
2018-03-08T20:10:56.658Z,5.20
2018-03-08T20:13:24.940Z,7.67
2018-03-08T20:15:53.204Z,7.83
2018-03-08T20:18:22.276Z,3.90
2018-03-08T20:20:51.502Z,8.73
2018-03-08T20:23:19.781Z,3.43
2018-03-08T20:25:48.061Z,9.00
2018-03-08T20:28:16.362Z,6.73
2018-03-08T20:30:45.074Z,5.87
2018-03-08T20:33:13.664Z,9.50
2018-03-08T20:35:41.911Z,2.80
2018-03-08T20:38:10.148Z,2.13
2018-03-08T20:40:38.421Z,4.73
2018-03-08T20:43:07.552Z,19.43
2018-03-08T20:45:35.792Z,2.70
2018-03-08T20:48:04.830Z,5.07
2018-03-08T20:50:33.096Z,5.20
2018-03-08T20:53:01.342Z,14.80
2018-03-08T20:55:29.653Z,6.77
2018-03-08T20:57:57.909Z,7.37
2018-03-08T21:00:26.178Z,10.87
2018-03-08T21:02:55.229Z,12.80
2018-03-08T21:05:23.508Z,14.80
2018-03-08T21:07:51.755Z,18.90
2018-03-08T21:10:20.014Z,14.80
2018-03-08T21:12:48.292Z,22.17
2018-03-08T21:15:16.618Z,24.70
2018-03-08T21:17:46.538Z,26.83
2018-03-08T21:20:14.804Z,29.60
2018-03-08T21:22:44.578Z,38.03
2018-03-08T21:25:12.829Z,32.17
2018-03-08T21:27:41.100Z,23.60
2018-03-08T21:30:10.126Z,25.73
2018-03-08T21:32:38.377Z,34.73
2018-03-08T21:35:07.449Z,30.27
2018-03-08T21:37:35.749Z,35.13
2018-03-08T21:40:05.514Z,28.00
2018-03-08T21:42:33.790Z,29.20
2018-03-08T21:45:02.066Z,36.10
2018-03-08T21:47:30.352Z,38.47
2018-03-08T21:49:59.428Z,30.17
2018-03-08T21:52:27.693Z,36.47
2018-03-08T21:54:55.976Z,37.47
2018-03-08T21:57:24.238Z,38.37
2018-03-08T21:59:53.246Z,43.10
2018-03-08T22:02:21.537Z,39.90
2018-03-08T22:04:49.800Z,42.80
2018-03-08T22:07:18.094Z,35.50
2018-03-08T22:09:46.371Z,51.63
2018-03-08T22:12:14.689Z,40.87
2018-03-08T22:14:42.945Z,38.33
2018-03-08T22:17:11.248Z,36.60
2018-03-08T22:19:40.990Z,38.20
2018-03-08T22:22:09.248Z,35.10
2018-03-08T22:24:38.306Z,26.63
2018-03-08T22:27:06.562Z,38.53
2018-03-08T22:29:34.836Z,27.00
2018-03-08T22:32:03.110Z,32.23
2018-03-08T22:34:31.360Z,27.33
2018-03-08T22:37:00.394Z,37.50
2018-03-08T22:39:28.688Z,28.23
2018-03-08T22:41:56.965Z,28.40
2018-03-08T22:44:25.191Z,28.37
2018-03-08T22:46:54.213Z,33.20
2018-03-08T22:49:22.473Z,33.90
2018-03-08T22:51:50.731Z,31.80
2018-03-08T22:54:19.812Z,27.13
2018-03-08T22:56:48.096Z,33.57
2018-03-08T22:59:16.350Z,18.77
2018-03-08T23:02:14.376Z,17.20
2018-03-08T23:04:42.632Z,25.27
2018-03-08T23:07:11.670Z,17.90
2018-03-08T23:09:39.909Z,20.17
2018-03-08T23:12:08.968Z,23.37
2018-03-08T23:14:37.217Z,21.63
2018-03-08T23:17:05.517Z,33.00
2018-03-08T23:19:33.796Z,18.23
2018-03-08T23:22:02.050Z,29.00
2018-03-08T23:24:30.321Z,26.97
2018-03-08T23:26:58.608Z,26.37
2018-03-08T23:29:26.904Z,23.67
2018-03-08T23:31:55.165Z,17.43
2018-03-08T23:34:23.431Z,23.37
2018-03-08T23:36:51.668Z,18.20
2018-03-08T23:39:20.702Z,26.83
2018-03-08T23:41:48.982Z,27.80
2018-03-08T23:44:17.201Z,23.47
2018-03-08T23:46:45.475Z,40.40
2018-03-08T23:49:13.715Z,22.50
2018-03-08T23:51:41.982Z,27.93
2018-03-08T23:54:10.236Z,36.13
2018-03-08T23:56:39.257Z,20.20
2018-03-08T23:59:07.493Z,23.97
